• Join FlightAware (Why Join?)
  • Login
  • US Flag 
09:11AM EST


 

Airport Tracker/Info


-or-


 

Live Flight TrackerFlight Track Log ✈ N21315 ✈ 28-Jul-2013 ✈ KUMP - KHAO

Flight Track Log - Related Links

Times and Time Zones

All times are in EDT time to prevent confusion due to time zone crossing. See the N21315 flight status page for this flight to view local times or setup timezone preferences in your user account.

Time Position Orientation Groundspeed Altitude Reporting Facility
EDT Latitude Longitude Course Direction KTS MPH feet Rate Location/Type
08:44AM 39.8667 -86.0000 123° Southeast 104 120 2,300  Level Indianapolis TRACON
08:45AM 39.8500 -85.9667 123° Southeast 105 121 2,700 360 Climbing Indianapolis TRACON
08:46AM 39.8333 -85.9667 180° South 94 108 3,000 300 Climbing Indianapolis TRACON
08:47AM 39.8156 -85.9586 161° South 99 114 3,200 360 Climbing Indianapolis Center
08:48AM 39.7917 -85.9433 154° Southeast 97 112 3,600 360 Climbing Indianapolis Center
08:49AM 39.7686 -85.9242 147° Southeast 97 112 4,000 360 Climbing Indianapolis Center
08:50AM 39.7450 -85.9069 151° Southeast 98 113 4,400 360 Climbing Indianapolis Center
08:51AM 39.7167 -85.8864 151° Southeast 97 112 4,800 300 Climbing Indianapolis Center
08:52AM 39.6925 -85.8672 149° Southeast 100 115 5,100 300 Climbing Indianapolis Center
08:53AM 39.6675 -85.8486 150° Southeast 102 117 5,500 300 Climbing Indianapolis Center
08:54AM 39.6422 -85.8331 155° Southeast 102 117 5,800 360 Climbing Indianapolis Center
08:55AM 39.6217 -85.8097 139° Southeast 100 115 6,300 360 Climbing Indianapolis Center
08:56AM 39.6075 -85.7764 119° Southeast 103 119 6,600 240 Climbing Indianapolis Center
08:57AM 39.5914 -85.7456 124° Southeast 103 119 6,900 240 Climbing Indianapolis Center
08:58AM 39.5733 -85.7114 124° Southeast 108 124 7,100 120 Climbing Indianapolis Center
08:59AM 39.5472 -85.6636 125° Southeast 123 142 7,200  Climbing Indianapolis Center
09:00AM 39.5231 -85.6200 126° Southeast 144 166 7,100 -60 Descending Indianapolis Center
09:01AM 39.4989 -85.5761 126° Southeast 148 170 7,100  Level Indianapolis Center
09:02AM 39.4750 -85.5336 126° Southeast 147 169 7,100 -60 Level Indianapolis Center
09:03AM 39.4517 -85.4886 124° Southeast 150 173 7,000  Descending Indianapolis Center
09:04AM 39.4275 -85.4469 127° Southeast 145 167 7,100 -60 Climbing Indianapolis Center
09:05AM 39.4119 -85.3992 113° Southeast 147 169 6,900 -300 Descending Indianapolis Center
09:06AM 39.4089 -85.3453 94° East 149 171 6,500 -420 Descending Indianapolis Center
09:07AM 39.4064 -85.2819 93° East 148 170 6,100 -360 Descending Indianapolis Center
09:08AM 39.4042 -85.2297 93° East 147 169 5,800 -360 Descending Indianapolis Center
09:09AM 39.4006 -85.1794 95° East 144 166 5,400 -420 Descending Indianapolis Center
09:10AM 39.3981 -85.1283 94° East 143 165 5,000 -360 Descending Indianapolis Center
09:11AM 39.3967 -85.0764 92° East 144 166 4,700 -300 Descending Indianapolis Center
09:12AM 39.3922 -85.0253 96° East 144 166 4,500 -300 Descending Indianapolis Center
09:13AM 39.3892 -84.9764 95° East 141 162 4,100 -360 Descending Indianapolis Center
09:14AM 39.3869 -84.9158 93° East 140 161 3,800 -300 Descending Indianapolis Center
09:16AM 39.3856 -84.8675 92° East 138 159 3,500 -300 Descending Indianapolis Center
09:17AM 39.3825 -84.8244 95° East 137 158 3,300 -240 Descending Indianapolis Center
09:19AM 39.3833 -84.7000 89° East 128 147 2,900 -180 Descending Cincinnati TRACON